createdAt,value
2019-05-14T00:00:21.766Z,102991.00
2019-05-14T00:03:02.309Z,102979.81
2019-05-14T00:05:39.191Z,102982.91
2019-05-14T00:08:17.457Z,102986.48
2019-05-14T00:10:49.312Z,102987.84
2019-05-14T00:13:21.427Z,102984.29
2019-05-14T00:15:54.417Z,102978.65
2019-05-14T00:18:26.953Z,102979.05
2019-05-14T00:20:57.559Z,102985.26
2019-05-14T00:23:31.693Z,102995.49
2019-05-14T00:26:03.215Z,102990.17
2019-05-14T00:28:35.181Z,102984.38
2019-05-14T00:31:09.254Z,102981.72
2019-05-14T00:33:44.342Z,102983.95
2019-05-14T00:36:16.302Z,102983.48
2019-05-14T00:38:47.678Z,102986.16
2019-05-14T00:41:22.588Z,102979.94
2019-05-14T00:43:54.090Z,102982.62
2019-05-14T00:46:25.114Z,102980.40
2019-05-14T00:48:55.746Z,102979.49
2019-05-14T00:51:26.324Z,102979.08
2019-05-14T00:54:01.664Z,102978.19
2019-05-14T00:56:33.985Z,102972.41
2019-05-14T00:59:07.457Z,102969.34
2019-05-14T01:01:45.802Z,102972.00
2019-05-14T01:04:18.530Z,102974.21
2019-05-14T01:06:51.505Z,102972.91
2019-05-14T01:09:23.127Z,102971.58
2019-05-14T01:11:53.642Z,102969.80
2019-05-14T01:14:26.211Z,102973.36
2019-05-14T01:16:57.844Z,102972.47
2019-05-14T01:19:28.434Z,102976.88
2019-05-14T01:22:01.829Z,102963.61
2019-05-14T01:24:34.702Z,102975.60
2019-05-14T01:27:08.016Z,102969.37
2019-05-14T01:29:42.669Z,102977.38
2019-05-14T01:32:13.165Z,102981.34
2019-05-14T01:34:48.164Z,102992.02
2019-05-14T01:37:22.794Z,102994.23
2019-05-14T01:39:55.404Z,102988.88
2019-05-14T01:42:28.141Z,102988.02
2019-05-14T01:45:02.556Z,102990.69
2019-05-14T01:47:34.052Z,102983.58
2019-05-14T01:50:04.444Z,102984.47
2019-05-14T01:52:35.407Z,102977.81
2019-05-14T01:55:08.664Z,102971.60
2019-05-14T01:57:42.290Z,102974.73
2019-05-14T02:00:17.947Z,102980.47
2019-05-14T02:02:52.423Z,102980.04
2019-05-14T02:05:25.997Z,102979.17
2019-05-14T02:08:01.770Z,102973.39
2019-05-14T02:10:34.779Z,102976.47
2019-05-14T02:13:08.662Z,102976.91
2019-05-14T02:15:42.959Z,102964.97
2019-05-14T02:18:17.166Z,102965.82
2019-05-14T02:20:47.454Z,102966.27
2019-05-14T02:23:18.841Z,102960.52
2019-05-14T02:25:55.524Z,102956.47
2019-05-14T02:28:26.438Z,102956.02
2019-05-14T02:31:03.534Z,102949.84
2019-05-14T02:33:32.866Z,102946.71
2019-05-14T02:36:04.441Z,102944.06
2019-05-14T02:38:38.742Z,102948.03
2019-05-14T02:41:09.897Z,102958.20
2019-05-14T02:43:41.937Z,102957.34
2019-05-14T02:46:18.674Z,102946.22
2019-05-14T02:48:51.912Z,102944.41
2019-05-14T02:51:22.972Z,102947.06
2019-05-14T02:54:04.396Z,102950.19
2019-05-14T02:56:40.240Z,102947.97
2019-05-14T02:59:11.070Z,102945.72
2019-05-14T03:01:44.087Z,102946.58
2019-05-14T03:04:15.947Z,102943.91
2019-05-14T03:06:49.633Z,102943.42
2019-05-14T03:09:24.022Z,102944.31
2019-05-14T03:11:54.896Z,102945.66
2019-05-14T03:14:25.931Z,102947.86
2019-05-14T03:17:01.411Z,102946.55
2019-05-14T03:19:32.069Z,102947.35
2019-05-14T03:22:02.560Z,102946.08
2019-05-14T03:24:35.920Z,102953.00
2019-05-14T03:27:09.349Z,102955.32
2019-05-14T03:29:41.888Z,102956.63
2019-05-14T03:32:22.146Z,102963.73
2019-05-14T03:34:53.836Z,102967.25
2019-05-14T03:37:30.893Z,102971.26
2019-05-14T03:40:01.274Z,102972.52
2019-05-14T03:42:36.024Z,102972.11
2019-05-14T03:45:08.580Z,102977.47
2019-05-14T03:47:43.928Z,102979.05
2019-05-14T03:50:14.584Z,102968.98
2019-05-14T03:52:50.211Z,102972.56
2019-05-14T03:55:21.396Z,102974.84
2019-05-14T03:57:52.385Z,102969.06
2019-05-14T04:00:49.982Z,102971.30
2019-05-14T04:03:23.586Z,102969.04
2019-05-14T04:06:04.353Z,102966.36
2019-05-14T04:08:49.754Z,102960.59
2019-05-14T04:11:24.734Z,102959.28
2019-05-14T04:14:00.181Z,102966.80
2019-05-14T04:16:39.631Z,102961.92
2019-05-14T04:19:14.180Z,102960.64
2019-05-14T04:21:49.872Z,102948.64
2019-05-14T04:24:29.681Z,102959.24
2019-05-14T04:27:12.812Z,102962.36
2019-05-14T04:29:45.184Z,102964.52
2019-05-14T04:32:19.991Z,102972.16
2019-05-14T04:34:53.522Z,102968.64
2019-05-14T04:37:24.477Z,102970.34
2019-05-14T04:39:59.368Z,102973.52
2019-05-14T04:42:32.874Z,102977.00
2019-05-14T04:45:05.751Z,102978.36
2019-05-14T04:47:42.193Z,102980.09
2019-05-14T04:50:20.073Z,102975.64
2019-05-14T04:52:59.908Z,102982.08
2019-05-14T04:55:35.309Z,102981.22
2019-05-14T04:58:10.202Z,102984.84
2019-05-14T05:00:44.790Z,102981.38
2019-05-14T05:03:15.503Z,102981.41
2019-05-14T05:05:49.946Z,102978.68
2019-05-14T05:08:21.825Z,102971.16
2019-05-14T05:10:55.279Z,102979.39
2019-05-14T05:13:41.093Z,102974.12
2019-05-14T05:16:15.104Z,102978.89
2019-05-14T05:18:49.102Z,102979.00
2019-05-14T05:21:24.823Z,102981.79
2019-05-14T05:23:55.753Z,102984.04
2019-05-14T05:26:28.720Z,102972.23
2019-05-14T05:29:06.518Z,102971.39
2019-05-14T05:31:35.118Z,102967.92
2019-05-14T05:34:09.708Z,102968.47
2019-05-14T05:36:43.392Z,102956.44
2019-05-14T05:39:22.986Z,102962.53
2019-05-14T05:41:58.344Z,102959.52
2019-05-14T05:44:31.162Z,102960.02
2019-05-14T05:47:04.950Z,102950.84
2019-05-14T05:49:38.406Z,102947.06
2019-05-14T05:52:14.578Z,102940.25
2019-05-14T05:54:45.574Z,102947.86
2019-05-14T05:57:20.094Z,102942.13
2019-05-14T05:59:51.141Z,102945.42
2019-05-14T06:02:23.250Z,102945.64
2019-05-14T06:04:55.566Z,102938.10
2019-05-14T06:07:28.835Z,102941.67
2019-05-14T06:10:09.698Z,102939.04
2019-05-14T06:12:49.105Z,102934.69
2019-05-14T06:15:24.363Z,102934.36
2019-05-14T06:18:10.406Z,102937.48
2019-05-14T06:20:28.223Z,102929.05
2019-05-14T06:23:00.500Z,102926.66
2019-05-14T06:25:31.539Z,102932.23
2019-05-14T06:28:02.321Z,102929.20
2019-05-14T06:30:43.000Z,102934.06
2019-05-14T06:33:19.633Z,102925.23
2019-05-14T06:36:01.010Z,102922.67
2019-05-14T06:38:38.834Z,102922.24
2019-05-14T06:41:11.674Z,102928.37
2019-05-14T06:43:48.683Z,102932.86
2019-05-14T06:46:20.509Z,102935.91
2019-05-14T06:48:50.746Z,102934.61
2019-05-14T06:51:21.197Z,102931.95
2019-05-14T06:53:58.917Z,102934.21
2019-05-14T06:56:32.037Z,102935.59
2019-05-14T06:59:09.043Z,102927.14
2019-05-14T07:01:44.480Z,102929.38
2019-05-14T07:04:18.250Z,102921.84
2019-05-14T07:06:52.775Z,102919.14
2019-05-14T07:09:24.399Z,102913.87
2019-05-14T07:11:58.471Z,102902.38
2019-05-14T07:14:32.415Z,102903.27
2019-05-14T07:17:04.971Z,102899.27
2019-05-14T07:19:38.575Z,102893.95
2019-05-14T07:22:12.173Z,102890.44
2019-05-14T07:24:45.733Z,102900.22
2019-05-14T07:27:22.415Z,102896.64
2019-05-14T07:29:53.807Z,102896.61
2019-05-14T07:32:29.741Z,102891.76
2019-05-14T07:35:04.751Z,102887.28
2019-05-14T07:37:39.616Z,102889.55
2019-05-14T07:40:13.933Z,102887.71
2019-05-14T07:42:44.551Z,102887.75
2019-05-14T07:45:19.401Z,102885.45
2019-05-14T07:47:54.455Z,102885.03
2019-05-14T07:50:25.603Z,102877.40
2019-05-14T07:52:58.561Z,102878.24
2019-05-14T07:55:41.530Z,102879.17
2019-05-14T08:01:11.162Z,102873.00
2019-05-14T08:03:42.386Z,102869.80
2019-05-14T08:06:14.241Z,102863.38
2019-05-14T08:08:49.221Z,102864.05
2019-05-14T08:11:28.520Z,102861.41
2019-05-14T08:14:03.555Z,102863.42
2019-05-14T08:16:38.141Z,102858.92
2019-05-14T08:19:24.341Z,102853.96
2019-05-14T08:21:47.982Z,102848.88
2019-05-14T08:24:20.209Z,102845.80
2019-05-14T08:26:54.418Z,102850.66
2019-05-14T08:29:28.539Z,102847.46
2019-05-14T08:32:01.553Z,102842.73
2019-05-14T08:34:35.739Z,102837.36
2019-05-14T08:37:10.282Z,102837.36
2019-05-14T08:39:43.578Z,102837.30
2019-05-14T08:42:18.579Z,102839.20
2019-05-14T08:44:51.714Z,102844.55
2019-05-14T08:47:22.238Z,102840.66
2019-05-14T08:49:53.998Z,102831.31
2019-05-14T08:52:28.580Z,102833.54
2019-05-14T08:55:09.106Z,102834.81
2019-05-14T08:57:31.855Z,102840.69
2019-05-14T09:03:03.265Z,102832.52
2019-05-14T09:05:34.621Z,102825.94
2019-05-14T09:08:04.903Z,102828.83
2019-05-14T09:10:35.099Z,102829.82
2019-05-14T09:13:10.677Z,102819.89
2019-05-14T09:15:54.908Z,102824.47
2019-05-14T09:18:34.007Z,102825.47
2019-05-14T09:21:49.567Z,102820.57
2019-05-14T09:24:25.867Z,102816.27
2019-05-14T09:26:59.302Z,102806.95
2019-05-14T09:29:30.230Z,102800.95
2019-05-14T09:32:00.395Z,102789.66
2019-05-14T09:34:33.269Z,102791.53
2019-05-14T09:37:04.834Z,102788.23
2019-05-14T09:39:38.712Z,102780.77
2019-05-14T09:45:48.166Z,102769.37
2019-05-14T09:48:42.091Z,102767.52
2019-05-14T09:51:13.909Z,102765.34
2019-05-14T09:53:45.357Z,102759.84
2019-05-14T09:56:18.641Z,102759.19
2019-05-14T09:58:51.840Z,102764.75
2019-05-14T10:01:27.264Z,102756.00
2019-05-14T10:03:59.525Z,102761.03
2019-05-14T10:06:30.157Z,102762.78
2019-05-14T10:09:01.940Z,102765.03
2019-05-14T10:12:28.624Z,102756.77
2019-05-14T10:15:02.397Z,102759.98
2019-05-14T10:17:34.576Z,102756.19
2019-05-14T10:20:08.581Z,102755.30
2019-05-14T10:22:40.154Z,102756.45
2019-05-14T10:25:10.825Z,102760.62
2019-05-14T10:27:41.077Z,102761.20
2019-05-14T10:30:12.848Z,102754.20
2019-05-14T10:32:44.106Z,102747.85
2019-05-14T10:35:19.151Z,102748.57
2019-05-14T10:37:53.946Z,102747.98
2019-05-14T10:40:23.626Z,102742.51
2019-05-14T10:42:57.949Z,102741.05
2019-05-14T10:45:32.412Z,102744.00
2019-05-14T10:48:03.627Z,102745.34
2019-05-14T10:50:52.253Z,102738.13
2019-05-14T10:53:10.447Z,102745.95
2019-05-14T10:55:42.508Z,102750.53
2019-05-14T10:58:19.195Z,102739.52
2019-05-14T11:00:49.527Z,102731.43
2019-05-14T11:03:24.931Z,102725.76
2019-05-14T11:05:58.768Z,102726.03
2019-05-14T11:08:29.808Z,102720.64
2019-05-14T11:11:03.623Z,102711.30
2019-05-14T11:13:34.256Z,102710.03
2019-05-14T11:16:05.194Z,102696.42
2019-05-14T11:18:39.602Z,102695.47
2019-05-14T11:21:19.813Z,102692.50
2019-05-14T11:23:42.569Z,102651.61
2019-05-14T11:26:13.157Z,102678.53
2019-05-14T11:28:43.714Z,102671.11
2019-05-14T11:31:13.869Z,102676.38
2019-05-14T11:33:44.055Z,102669.69
2019-05-14T11:36:15.668Z,102663.11
2019-05-14T11:38:46.232Z,102658.09
2019-05-14T11:41:18.609Z,102665.09
2019-05-14T11:43:54.145Z,102658.72
2019-05-14T11:46:39.915Z,102656.67
2019-05-14T11:48:59.399Z,102655.91
2019-05-14T11:51:58.983Z,102646.67
2019-05-14T11:54:03.273Z,102637.26
2019-05-14T11:56:33.840Z,102633.88
2019-05-14T11:59:05.518Z,102630.77
2019-05-14T12:01:39.257Z,102631.58
2019-05-14T12:04:09.595Z,102639.63
2019-05-14T12:06:41.025Z,102630.58
2019-05-14T12:09:12.158Z,102626.70
2019-05-14T12:11:42.477Z,102624.98
2019-05-14T12:14:13.233Z,102617.92
2019-05-14T12:16:43.403Z,102614.64
2019-05-14T12:19:14.113Z,102621.25
2019-05-14T12:21:58.929Z,102606.09
2019-05-14T12:24:18.433Z,102601.16
2019-05-14T12:26:49.682Z,102597.82
2019-05-14T12:29:21.740Z,102598.46
2019-05-14T12:31:51.919Z,102593.88
2019-05-14T12:34:22.298Z,102580.96
2019-05-14T12:36:52.461Z,102590.73
2019-05-14T12:39:25.335Z,102578.02
2019-05-14T12:41:58.063Z,102567.84
2019-05-14T12:44:29.324Z,102563.03
2019-05-14T12:46:59.559Z,102564.55
2019-05-14T12:49:30.346Z,102562.50
2019-05-14T12:52:17.861Z,102564.79
2019-05-14T12:54:35.006Z,102556.61
2019-05-14T12:57:07.109Z,102554.63
2019-05-14T12:59:39.857Z,102560.74
2019-05-14T13:02:10.897Z,102562.72
2019-05-14T13:04:42.757Z,102562.31
2019-05-14T13:07:13.989Z,102563.73
2019-05-14T13:09:46.157Z,102552.69
2019-05-14T13:12:18.773Z,102560.61
2019-05-14T13:14:51.057Z,102555.60
2019-05-14T13:17:21.248Z,102548.66
2019-05-14T13:19:51.895Z,102548.19
2019-05-14T13:22:38.206Z,102547.47
2019-05-14T13:24:59.774Z,102533.09
2019-05-14T13:27:31.212Z,102531.06
2019-05-14T13:30:04.390Z,102522.84
2019-05-14T13:32:34.758Z,102527.95
2019-05-14T13:35:09.549Z,102528.97
2019-05-14T13:37:39.842Z,102525.48
2019-05-14T13:40:13.902Z,102530.16
2019-05-14T13:42:48.968Z,102521.89
2019-05-14T13:45:23.681Z,102522.16
2019-05-14T13:47:53.828Z,102516.77
2019-05-14T13:50:24.865Z,102514.79
2019-05-14T13:53:02.688Z,102513.52
2019-05-14T13:55:30.414Z,102507.72
2019-05-14T13:58:00.016Z,102506.99
2019-05-14T14:00:31.580Z,102496.73
2019-05-14T14:03:02.014Z,102503.40
2019-05-14T14:05:32.276Z,102496.80
2019-05-14T14:08:02.781Z,102497.76
2019-05-14T14:10:39.564Z,102491.94
2019-05-14T14:13:11.361Z,102484.91
2019-05-14T14:15:40.394Z,102485.33
2019-05-14T14:18:11.145Z,102492.78
2019-05-14T14:20:42.299Z,102486.55
2019-05-14T14:23:21.840Z,102481.09
2019-05-14T14:25:54.523Z,102479.88
2019-05-14T14:28:20.708Z,102475.61
2019-05-14T14:30:53.364Z,102483.84
2019-05-14T14:33:23.937Z,102479.48
2019-05-14T14:35:55.114Z,102475.45
2019-05-14T14:38:29.174Z,102477.09
2019-05-14T14:40:59.451Z,102467.22
2019-05-14T14:43:29.766Z,102466.77
2019-05-14T14:46:01.114Z,102464.39
2019-05-14T14:48:32.510Z,102462.92
2019-05-14T14:51:03.493Z,102457.74
2019-05-14T14:53:51.288Z,102466.53
2019-05-14T14:56:09.913Z,102458.83
2019-05-14T14:58:40.776Z,102457.15
2019-05-14T15:01:11.962Z,102457.28
2019-05-14T15:03:44.188Z,102456.97
2019-05-14T15:06:17.547Z,102452.91
2019-05-14T15:08:49.654Z,102453.45
2019-05-14T15:11:21.180Z,102451.30
2019-05-14T15:13:51.781Z,102454.23
2019-05-14T15:16:22.762Z,102444.80
2019-05-14T15:18:52.990Z,102445.96
2019-05-14T15:21:25.539Z,102438.36
2019-05-14T15:24:07.022Z,102439.84
2019-05-14T15:26:29.085Z,102434.04
2019-05-14T15:29:02.260Z,102416.61
2019-05-14T15:31:33.040Z,102422.36
2019-05-14T15:34:03.254Z,102413.93
2019-05-14T15:36:33.915Z,102403.08
2019-05-14T15:39:06.240Z,102400.97
2019-05-14T15:41:39.976Z,102395.03
2019-05-14T15:44:10.250Z,102394.14
2019-05-14T15:46:42.058Z,102405.64
2019-05-14T15:49:12.840Z,102383.58
2019-05-14T15:51:43.461Z,102372.09
2019-05-14T15:54:35.241Z,102382.03
2019-05-14T15:56:45.584Z,102376.09
2019-05-14T15:59:15.784Z,102374.17
2019-05-14T16:01:46.420Z,102373.56
2019-05-14T16:04:16.584Z,102369.39
2019-05-14T16:06:48.909Z,102364.66
2019-05-14T16:09:19.432Z,102353.41
2019-05-14T16:11:52.657Z,102347.31
2019-05-14T16:14:23.273Z,102348.08
2019-05-14T16:16:54.105Z,102351.33
2019-05-14T16:19:25.379Z,102345.06
2019-05-14T16:21:55.654Z,102339.41
2019-05-14T16:24:28.566Z,102348.49
2019-05-14T16:27:00.799Z,102358.27
2019-05-14T16:29:44.275Z,102364.30
2019-05-14T16:32:04.865Z,102355.31
2019-05-14T16:34:40.730Z,102355.39
2019-05-14T16:37:11.063Z,102351.82
2019-05-14T16:39:41.086Z,102361.19
2019-05-14T16:42:11.268Z,102354.18
2019-05-14T16:44:41.848Z,102353.86
2019-05-14T16:47:13.325Z,102360.43
2019-05-14T16:49:43.489Z,102357.56
2019-05-14T16:52:13.710Z,102355.39
2019-05-14T16:54:44.383Z,102355.56
2019-05-14T16:57:14.549Z,102354.58
2019-05-14T16:59:49.591Z,102357.63
2019-05-14T17:02:19.632Z,102360.20
2019-05-14T17:04:50.705Z,102356.27
2019-05-14T17:07:23.161Z,102365.49
2019-05-14T17:09:55.075Z,102361.09
2019-05-14T17:12:25.227Z,102356.89
2019-05-14T17:14:58.622Z,102364.23
2019-05-14T17:17:32.007Z,102368.27
2019-05-14T17:20:02.934Z,102366.08
2019-05-14T17:22:33.936Z,102356.84
2019-05-14T17:25:04.825Z,102361.59
2019-05-14T17:27:39.118Z,102361.80
2019-05-14T17:30:10.163Z,102354.78
2019-05-14T17:32:41.438Z,102362.68
2019-05-14T17:35:12.325Z,102363.25
2019-05-14T17:37:42.460Z,102358.22
2019-05-14T17:40:14.147Z,102360.11
2019-05-14T17:42:50.544Z,102363.99
2019-05-14T17:45:22.310Z,102365.64
2019-05-14T17:47:52.790Z,102368.30
2019-05-14T17:50:23.015Z,102371.73
2019-05-14T17:53:00.412Z,102365.00
2019-05-14T17:55:43.571Z,102362.43
2019-05-14T17:58:03.139Z,102364.08
2019-05-14T18:00:34.278Z,102360.81
2019-05-14T18:03:05.246Z,102358.86
2019-05-14T18:05:37.812Z,102363.85
2019-05-14T18:08:09.323Z,102352.83
2019-05-14T18:10:41.282Z,102352.02
2019-05-14T18:13:14.638Z,102347.98
2019-05-14T18:15:44.847Z,102352.34
2019-05-14T18:18:15.105Z,102348.56
2019-05-14T18:20:45.264Z,102355.23
2019-05-14T18:23:15.414Z,102347.25
2019-05-14T18:26:01.051Z,102352.09
2019-05-14T18:28:20.206Z,102348.45
2019-05-14T18:30:50.518Z,102349.86
2019-05-14T18:33:30.798Z,102350.25
2019-05-14T18:35:59.218Z,102350.25
2019-05-14T18:38:29.884Z,102349.80
2019-05-14T18:41:01.457Z,102340.62
2019-05-14T18:43:31.897Z,102340.62
2019-05-14T18:46:04.454Z,102352.06
2019-05-14T18:48:35.869Z,102350.19
2019-05-14T18:51:08.687Z,102354.17
2019-05-14T18:53:40.108Z,102354.17
2019-05-14T18:56:20.360Z,102353.06
2019-05-14T18:58:43.242Z,102353.11
2019-05-14T19:01:13.555Z,102351.45
2019-05-14T19:04:01.307Z,102353.11
2019-05-14T19:06:31.522Z,102348.66
2019-05-14T19:09:02.254Z,102354.35
2019-05-14T19:11:34.209Z,102348.44
2019-05-14T19:14:09.107Z,102355.63
2019-05-14T19:16:40.439Z,102353.06
2019-05-14T19:19:11.091Z,102358.29
2019-05-14T19:21:41.369Z,102361.30
2019-05-14T19:24:11.980Z,102361.41
2019-05-14T19:26:43.697Z,102366.16
2019-05-14T19:29:15.002Z,102357.19
2019-05-14T19:31:45.271Z,102353.92
2019-05-14T19:34:19.223Z,102358.53
2019-05-14T19:36:49.634Z,102353.02
2019-05-14T19:39:20.303Z,102359.28
2019-05-14T19:41:51.467Z,102355.22
2019-05-14T19:44:21.814Z,102343.08
2019-05-14T19:46:51.825Z,102352.09
2019-05-14T19:49:22.538Z,102355.72
2019-05-14T19:51:53.776Z,102357.39
2019-05-14T19:54:25.093Z,102356.94
2019-05-14T19:57:01.106Z,102359.49
2019-05-14T19:59:39.238Z,102356.67
2019-05-14T20:02:10.330Z,102363.33
2019-05-14T20:04:44.774Z,102366.92
2019-05-14T20:07:15.115Z,102369.44
2019-05-14T20:09:48.314Z,102364.84
2019-05-14T20:12:21.892Z,102366.06
2019-05-14T20:14:58.345Z,102361.59
2019-05-14T20:17:30.131Z,102363.08
2019-05-14T20:20:03.678Z,102361.25
2019-05-14T20:22:59.205Z,102355.61
2019-05-14T20:25:32.987Z,102362.30
2019-05-14T20:28:03.139Z,102366.97
2019-05-14T20:30:38.645Z,102358.92
2019-05-14T20:33:11.773Z,102357.09
2019-05-14T20:35:41.874Z,102356.87
2019-05-14T20:38:14.519Z,102355.59
2019-05-14T20:40:52.221Z,102348.92
2019-05-14T20:43:38.452Z,102351.92
2019-05-14T20:46:18.332Z,102346.11
2019-05-14T20:48:47.957Z,102347.62
2019-05-14T20:51:22.487Z,102347.19
2019-05-14T20:53:55.251Z,102348.95
2019-05-14T20:56:28.247Z,102338.68
2019-05-14T20:58:59.548Z,102340.13
2019-05-14T21:01:31.021Z,102338.70
2019-05-14T21:04:01.804Z,102339.91
2019-05-14T21:06:32.992Z,102342.15
2019-05-14T21:09:04.473Z,102339.81
2019-05-14T21:11:38.248Z,102346.94
2019-05-14T21:14:09.901Z,102340.81
2019-05-14T21:16:42.632Z,102344.51
2019-05-14T21:19:28.362Z,102342.31
2019-05-14T21:22:01.176Z,102345.81
2019-05-14T21:24:31.485Z,102342.94
2019-05-14T21:27:02.271Z,102346.11
2019-05-14T21:29:33.403Z,102340.31
2019-05-14T21:32:04.508Z,102342.77
2019-05-14T21:34:34.868Z,102341.52
2019-05-14T21:37:08.829Z,102345.61
2019-05-14T21:39:41.060Z,102345.50
2019-05-14T21:42:10.969Z,102341.42
2019-05-14T21:44:41.354Z,102339.61
2019-05-14T21:49:56.384Z,102335.81
2019-05-14T21:52:31.811Z,102337.53
2019-05-14T21:55:03.658Z,102335.36
2019-05-14T21:57:38.259Z,102335.46
2019-05-14T22:00:14.874Z,102333.46
2019-05-14T22:02:49.123Z,102330.79
2019-05-14T22:05:20.155Z,102328.86
2019-05-14T22:07:51.402Z,102328.27
2019-05-14T22:10:22.634Z,102324.59
2019-05-14T22:12:54.330Z,102319.62
2019-05-14T22:15:25.454Z,102315.22
2019-05-14T22:17:58.534Z,102316.43
2019-05-14T22:20:29.127Z,102318.69
2019-05-14T22:22:59.536Z,102316.45
2019-05-14T22:25:30.032Z,102317.86
2019-05-14T22:28:11.438Z,102317.86
2019-05-14T22:30:33.206Z,102314.47
2019-05-14T22:33:04.519Z,102310.48
2019-05-14T22:35:35.294Z,102313.53
2019-05-14T22:38:08.043Z,102312.44
2019-05-14T22:40:39.084Z,102307.48
2019-05-14T22:43:11.590Z,102305.89
2019-05-14T22:45:41.790Z,102307.44
2019-05-14T22:48:12.408Z,102307.87
2019-05-14T22:50:43.103Z,102304.25
2019-05-14T22:53:15.987Z,102304.80
2019-05-14T22:55:46.209Z,102304.80
2019-05-14T22:58:25.565Z,102304.87
2019-05-14T23:01:02.211Z,102309.92
2019-05-14T23:03:24.265Z,102305.56
2019-05-14T23:05:54.433Z,102304.15
2019-05-14T23:08:25.756Z,102299.88
2019-05-14T23:10:55.906Z,102300.85
2019-05-14T23:13:28.238Z,102295.09
2019-05-14T23:16:00.858Z,102299.53
2019-05-14T23:18:33.764Z,102294.72
2019-05-14T23:21:03.928Z,102295.77
2019-05-14T23:23:34.696Z,102291.33
2019-05-14T23:26:05.651Z,102290.95
2019-05-14T23:28:44.586Z,102293.78
2019-05-14T23:31:12.265Z,102293.70
2019-05-14T23:33:43.934Z,102294.22
2019-05-14T23:36:18.286Z,102293.46
2019-05-14T23:38:50.645Z,102293.34
2019-05-14T23:41:23.498Z,102291.69
2019-05-14T23:43:54.293Z,102287.78
2019-05-14T23:46:24.579Z,102276.32
2019-05-14T23:48:56.474Z,102283.95
2019-05-14T23:51:28.994Z,102281.70
2019-05-14T23:53:58.962Z,102281.35
2019-05-14T23:56:29.718Z,102280.18
2019-05-14T23:59:02.067Z,102278.28
